createdAt,value
2023-05-08T00:02:29.910Z,9.50
2023-05-08T00:05:16.775Z,9.51
2023-05-08T00:08:01.736Z,9.50
2023-05-08T00:10:48.689Z,9.53
2023-05-08T00:13:29.892Z,9.49
2023-05-08T00:16:18.033Z,9.46
2023-05-08T00:19:05.027Z,9.49
2023-05-08T00:21:45.402Z,9.51
2023-05-08T00:24:32.828Z,9.54
2023-05-08T00:27:13.605Z,9.52
2023-05-08T00:30:00.848Z,9.49
2023-05-08T00:32:47.947Z,9.53
2023-05-08T00:35:35.753Z,9.46
2023-05-08T00:38:16.874Z,9.48
2023-05-08T00:41:10.926Z,9.61
2023-05-08T00:43:57.944Z,9.65
2023-05-08T00:46:39.004Z,9.63
2023-05-08T00:49:25.706Z,9.58
2023-05-08T00:52:08.749Z,9.64
2023-05-08T00:54:55.611Z,9.66
2023-05-08T00:57:45.637Z,9.65
2023-05-08T01:00:33.584Z,9.57
2023-05-08T01:03:15.062Z,9.67
2023-05-08T01:06:01.617Z,9.64
2023-05-08T01:08:41.860Z,9.69
2023-05-08T01:11:51.578Z,9.71
2023-05-08T01:14:40.828Z,9.73
2023-05-08T01:17:48.059Z,9.73
2023-05-08T01:20:41.866Z,9.74
2023-05-08T01:23:52.598Z,9.74
2023-05-08T01:27:01.691Z,9.74
2023-05-08T01:30:03.192Z,9.80
2023-05-08T01:33:11.053Z,9.83
2023-05-08T01:36:05.731Z,9.76
2023-05-08T01:39:15.694Z,9.83
2023-05-08T01:42:09.223Z,9.78
2023-05-08T01:44:54.572Z,9.80
2023-05-08T01:47:39.567Z,9.77
2023-05-08T01:50:39.682Z,9.79
2023-05-08T01:53:30.398Z,9.80
2023-05-08T01:56:25.578Z,9.80
2023-05-08T01:59:12.569Z,9.72
2023-05-08T02:01:54.611Z,9.62
2023-05-08T02:04:42.566Z,9.76
2023-05-08T02:07:22.676Z,9.74
2023-05-08T02:10:11.764Z,9.73
2023-05-08T02:13:02.553Z,9.60
2023-05-08T02:15:43.449Z,9.61
2023-05-08T02:18:34.514Z,9.65
2023-05-08T02:21:22.566Z,9.61
2023-05-08T02:24:11.547Z,9.69
2023-05-08T02:26:54.614Z,9.76
2023-05-08T02:29:42.932Z,9.76
2023-05-08T02:32:26.372Z,9.76
2023-05-08T02:35:13.500Z,9.76
2023-05-08T02:38:03.460Z,9.78
2023-05-08T02:40:47.596Z,9.70
2023-05-08T02:43:34.452Z,9.79
2023-05-08T02:46:46.870Z,9.83
2023-05-08T02:50:16.467Z,9.77
2023-05-08T02:53:07.436Z,9.79
2023-05-08T02:55:58.139Z,9.76
2023-05-08T02:58:53.454Z,9.77
2023-05-08T03:01:42.530Z,9.79
2023-05-08T03:04:40.451Z,9.77
2023-05-08T03:07:31.448Z,9.86
2023-05-08T03:10:24.436Z,9.90
2023-05-08T03:13:13.373Z,9.94
2023-05-08T03:16:06.497Z,9.97
2023-05-08T03:19:03.398Z,9.97
2023-05-08T03:21:45.518Z,10.04
2023-05-08T03:24:34.432Z,10.12
2023-05-08T03:27:15.589Z,10.21
2023-05-08T03:30:04.393Z,10.26
2023-05-08T03:32:47.521Z,10.34
2023-05-08T03:35:35.414Z,10.44
2023-05-08T03:38:23.365Z,10.50
2023-05-08T03:41:11.410Z,10.67
2023-05-08T03:43:52.507Z,10.79
2023-05-08T03:46:39.417Z,10.91
2023-05-08T03:49:21.473Z,11.08
2023-05-08T03:52:09.392Z,11.33
2023-05-08T03:54:49.466Z,11.68
2023-05-08T03:57:44.397Z,12.25
2023-05-08T04:01:06.880Z,12.92
2023-05-08T04:04:06.403Z,13.46
2023-05-08T04:06:56.981Z,13.95
2023-05-08T04:10:09.389Z,14.67
2023-05-08T04:13:09.578Z,15.23
2023-05-08T04:16:21.378Z,15.50
2023-05-08T04:19:08.481Z,15.96
2023-05-08T04:21:57.361Z,16.52
2023-05-08T04:24:47.369Z,16.98
2023-05-08T04:27:29.328Z,16.64
2023-05-08T04:30:17.317Z,16.13
2023-05-08T04:32:59.683Z,16.11
2023-05-08T04:35:47.316Z,16.06
2023-05-08T04:38:34.440Z,16.45
2023-05-08T04:41:22.614Z,16.88
2023-05-08T04:44:02.431Z,16.97
2023-05-08T04:46:49.317Z,17.39
2023-05-08T04:49:36.310Z,16.85
2023-05-08T04:52:16.774Z,17.04
2023-05-08T04:55:03.351Z,16.97
2023-05-08T04:57:46.128Z,16.97
2023-05-08T05:00:34.630Z,17.32
2023-05-08T05:03:14.868Z,17.68
2023-05-08T05:06:01.351Z,17.96
2023-05-08T05:08:41.695Z,18.55
2023-05-08T05:11:29.286Z,18.98
2023-05-08T05:14:09.705Z,18.83
2023-05-08T05:16:56.270Z,18.51
2023-05-08T05:19:51.617Z,17.69
2023-05-08T05:22:33.664Z,18.26
2023-05-08T05:25:22.323Z,18.70
2023-05-08T05:28:02.857Z,19.69
2023-05-08T05:30:49.313Z,19.58
2023-05-08T05:33:29.666Z,20.15
2023-05-08T05:36:16.232Z,20.70
2023-05-08T05:38:56.586Z,20.26
2023-05-08T05:41:43.248Z,20.32
2023-05-08T05:44:30.392Z,18.59
2023-05-08T05:47:12.331Z,18.59
2023-05-08T05:49:59.479Z,18.73
2023-05-08T05:52:40.284Z,18.81
2023-05-08T05:55:21.081Z,18.90
2023-05-08T05:58:09.251Z,19.21
2023-05-08T06:00:51.493Z,19.11
2023-05-08T06:03:38.316Z,19.43
2023-05-08T06:06:18.622Z,20.19
2023-05-08T06:09:05.243Z,19.72
2023-05-08T06:11:52.185Z,19.58
2023-05-08T06:14:32.263Z,19.28
2023-05-08T06:17:19.441Z,19.64
2023-05-08T06:20:00.275Z,19.56
2023-05-08T06:22:48.212Z,19.48
2023-05-08T06:25:35.244Z,19.57
2023-05-08T06:28:15.591Z,19.79
2023-05-08T06:31:02.287Z,19.49
2023-05-08T06:33:49.180Z,19.35
2023-05-08T06:36:29.278Z,19.41
2023-05-08T06:39:16.205Z,20.54
2023-05-08T06:42:12.195Z,21.11
2023-05-08T06:44:53.833Z,20.72
2023-05-08T06:47:40.180Z,21.39
2023-05-08T06:50:20.746Z,20.90
2023-05-08T06:53:07.242Z,21.91
2023-05-08T06:55:50.170Z,21.55
2023-05-08T06:58:39.170Z,21.30
2023-05-08T07:01:19.424Z,21.90
2023-05-08T07:04:07.219Z,21.91
2023-05-08T07:06:47.373Z,21.59
2023-05-08T07:09:34.170Z,22.38
2023-05-08T07:12:16.626Z,22.79
2023-05-08T07:15:13.748Z,23.13
2023-05-08T07:18:03.294Z,22.87
2023-05-08T07:20:50.154Z,22.38
2023-05-08T07:23:37.152Z,21.09
2023-05-08T07:40:23.736Z,21.98
2023-05-08T07:43:04.122Z,21.92
2023-05-08T07:45:50.685Z,21.77
2023-05-08T07:48:31.216Z,21.40
2023-05-08T07:51:17.713Z,21.94
2023-05-08T07:53:58.699Z,23.34
2023-05-08T07:56:45.687Z,24.62
2023-05-08T07:59:32.691Z,24.21
2023-05-08T08:02:13.267Z,24.87
2023-05-08T08:04:59.745Z,25.14
2023-05-08T08:07:46.645Z,24.29
2023-05-08T08:10:27.246Z,23.10
2023-05-08T08:13:13.659Z,21.54
2023-05-08T08:15:54.039Z,23.36
2023-05-08T08:18:40.640Z,23.41
2023-05-08T08:21:21.037Z,23.23
2023-05-08T08:24:07.673Z,23.60
2023-05-08T08:26:48.119Z,23.85
2023-05-08T08:29:34.732Z,23.58
2023-05-08T08:32:14.971Z,24.17
2023-05-08T08:35:01.619Z,25.00
2023-05-08T08:37:42.085Z,24.49
2023-05-08T08:40:28.634Z,24.69
2023-05-08T08:43:16.654Z,24.08
2023-05-08T08:45:56.804Z,24.27
2023-05-08T08:48:44.778Z,23.45
2023-05-08T08:51:52.733Z,23.38
2023-05-08T08:54:41.612Z,24.14
2023-05-08T08:57:29.585Z,23.50
2023-05-08T09:00:18.811Z,22.08
2023-05-08T09:02:58.782Z,21.56
2023-05-08T09:05:46.590Z,21.45
2023-05-08T09:08:26.746Z,21.34
2023-05-08T09:11:13.585Z,20.94
2023-05-08T09:13:53.718Z,21.89
2023-05-08T09:16:40.665Z,21.84
2023-05-08T09:19:24.391Z,21.95
2023-05-08T09:22:15.601Z,21.60
2023-05-08T09:25:09.614Z,21.62
2023-05-08T09:27:49.923Z,20.20
2023-05-08T09:30:36.592Z,19.38
2023-05-08T09:33:17.985Z,18.75
2023-05-08T09:36:04.588Z,18.17
2023-05-08T09:38:51.583Z,18.50
2023-05-08T09:41:31.697Z,20.98
2023-05-08T09:44:18.551Z,21.86
2023-05-08T09:47:05.636Z,23.78
2023-05-08T09:50:06.244Z,24.52
2023-05-08T09:52:52.578Z,23.14
2023-05-08T09:55:54.581Z,21.17
2023-05-08T09:58:47.666Z,20.06
2023-05-08T10:01:43.630Z,20.12
2023-05-08T10:04:30.560Z,20.78
2023-05-08T10:07:12.989Z,21.75
2023-05-08T10:10:19.683Z,22.47
2023-05-08T10:13:06.605Z,22.89
2023-05-08T10:15:49.658Z,21.75
2023-05-08T10:18:42.541Z,20.88
2023-05-08T10:21:23.576Z,19.66
2023-05-08T10:24:15.489Z,19.62
2023-05-08T10:27:19.577Z,19.63
2023-05-08T10:30:04.455Z,21.14
2023-05-08T10:32:56.946Z,21.67
2023-05-08T10:35:40.381Z,21.49
2023-05-08T10:38:30.494Z,22.46
2023-05-08T10:41:19.010Z,22.20
2023-05-08T10:44:01.616Z,22.60
2023-05-08T10:46:52.156Z,21.45
2023-05-08T10:50:02.453Z,18.94
2023-05-08T10:52:57.492Z,18.14
2023-05-08T10:55:39.895Z,18.09
2023-05-08T10:58:36.487Z,18.36
2023-05-08T11:01:23.580Z,18.63
2023-05-08T11:04:21.625Z,20.89
2023-05-08T11:07:08.517Z,19.42
2023-05-08T11:09:49.178Z,18.51
2023-05-08T11:12:40.495Z,19.70
2023-05-08T11:15:37.435Z,19.49
2023-05-08T11:18:26.347Z,19.61
2023-05-08T11:21:15.953Z,19.49
2023-05-08T11:24:10.893Z,18.95
2023-05-08T11:26:50.817Z,17.72
2023-05-08T11:29:37.426Z,17.38
2023-05-08T11:32:17.849Z,16.74
2023-05-08T11:35:04.536Z,16.44
2023-05-08T11:38:26.487Z,16.05
2023-05-08T11:41:37.738Z,15.61
2023-05-08T11:44:27.852Z,15.89
2023-05-08T11:47:17.664Z,16.32
2023-05-08T11:50:04.456Z,16.88
2023-05-08T11:52:46.517Z,16.87
2023-05-08T11:55:33.386Z,16.97
2023-05-08T11:58:20.664Z,16.64
2023-05-08T12:01:07.441Z,16.61
2023-05-08T12:03:47.586Z,16.26
2023-05-08T12:06:35.417Z,16.14
2023-05-08T12:09:24.583Z,16.37
2023-05-08T12:12:11.417Z,16.00
2023-05-08T12:14:55.860Z,16.05
2023-05-08T12:17:42.488Z,15.81
2023-05-08T12:20:24.462Z,15.93
2023-05-08T12:23:11.428Z,15.84
2023-05-08T12:25:53.147Z,15.62
2023-05-08T12:28:41.382Z,15.31
2023-05-08T12:31:21.555Z,15.22
2023-05-08T12:34:10.510Z,15.53
2023-05-08T12:36:51.409Z,15.69
2023-05-08T12:39:43.361Z,15.76
2023-05-08T12:42:23.561Z,16.02
2023-05-08T12:45:10.374Z,16.52
2023-05-08T12:47:54.748Z,16.46
2023-05-08T12:50:44.971Z,16.95
2023-05-08T12:53:28.437Z,16.30
2023-05-08T12:56:15.372Z,15.65
2023-05-08T12:58:55.513Z,15.52
2023-05-08T13:01:42.419Z,15.56
2023-05-08T13:04:22.467Z,15.45
2023-05-08T13:07:09.322Z,15.06
2023-05-08T13:10:04.566Z,14.73
2023-05-08T13:12:54.359Z,14.87
2023-05-08T13:15:34.450Z,14.83
2023-05-08T13:18:22.347Z,15.16
2023-05-08T13:21:10.305Z,15.24
2023-05-08T13:23:50.687Z,15.12
2023-05-08T13:26:37.350Z,15.02
2023-05-08T13:29:17.660Z,14.97
2023-05-08T13:32:04.317Z,14.82
2023-05-08T13:34:50.253Z,14.61
2023-05-08T13:37:38.280Z,14.45
2023-05-08T13:40:32.321Z,14.18
2023-05-08T13:43:19.338Z,14.49
2023-05-08T13:45:59.475Z,14.39
2023-05-08T13:48:46.270Z,14.44
2023-05-08T13:51:26.551Z,14.65
2023-05-08T13:54:13.281Z,14.70
2023-05-08T13:56:54.031Z,14.85
2023-05-08T13:59:42.292Z,14.71
2023-05-08T14:02:29.406Z,14.66
2023-05-08T14:05:10.077Z,14.50
2023-05-08T14:07:57.304Z,14.32
2023-05-08T14:10:44.281Z,14.50
2023-05-08T14:13:31.253Z,14.31
2023-05-08T14:16:19.322Z,14.20
2023-05-08T14:19:06.253Z,14.09
2023-05-08T14:21:53.282Z,14.09
2023-05-08T14:24:40.255Z,14.10
2023-05-08T14:27:20.948Z,14.11
2023-05-08T14:30:07.236Z,13.94
2023-05-08T14:32:47.698Z,13.80
2023-05-08T14:35:34.252Z,13.73
2023-05-08T14:38:15.050Z,13.48
2023-05-08T14:41:05.283Z,13.60
2023-05-08T14:43:52.228Z,13.37
2023-05-08T14:46:32.626Z,13.43
2023-05-08T14:49:25.436Z,13.43
2023-05-08T14:52:13.339Z,13.62
2023-05-08T14:55:00.371Z,13.70
2023-05-08T14:57:40.467Z,13.42
2023-05-08T15:00:28.204Z,13.01
2023-05-08T15:03:08.352Z,12.86
2023-05-08T15:05:55.399Z,12.75
2023-05-08T15:08:42.226Z,12.83
2023-05-08T15:11:29.214Z,12.87
2023-05-08T15:14:10.320Z,12.87
2023-05-08T15:16:57.126Z,12.86
2023-05-08T15:19:37.285Z,12.63
2023-05-08T15:22:24.735Z,12.60
2023-05-08T15:25:06.363Z,12.39
2023-05-08T15:28:00.573Z,12.40
2023-05-08T15:30:48.099Z,12.25
2023-05-08T15:33:28.539Z,11.99
2023-05-08T15:36:15.161Z,11.89
2023-05-08T15:39:02.128Z,11.85
2023-05-08T15:41:42.335Z,11.77
2023-05-08T15:44:41.612Z,11.76
2023-05-08T15:47:29.291Z,11.71
2023-05-08T15:50:16.114Z,11.68
2023-05-08T15:52:56.267Z,11.59
2023-05-08T15:55:43.143Z,11.63
2023-05-08T15:58:30.124Z,11.54
2023-05-08T16:01:10.585Z,11.55
2023-05-08T16:03:57.121Z,11.49
2023-05-08T16:06:37.500Z,11.48
2023-05-08T16:09:24.091Z,11.50
2023-05-08T16:12:04.797Z,11.51
2023-05-08T16:14:51.123Z,11.48
2023-05-08T16:17:39.108Z,11.43
2023-05-08T16:20:19.188Z,11.42
2023-05-08T16:23:06.080Z,11.37
2023-05-08T16:25:46.186Z,11.40
2023-05-08T16:28:33.073Z,11.40
2023-05-08T16:31:13.338Z,11.40
2023-05-08T16:34:00.083Z,11.35
2023-05-08T16:36:40.711Z,11.32
2023-05-08T16:39:27.103Z,11.36
2023-05-08T16:42:14.052Z,11.40
2023-05-08T16:45:01.208Z,11.39
2023-05-08T16:47:41.162Z,11.43
2023-05-08T16:50:28.065Z,11.41
2023-05-08T16:53:08.151Z,11.44
2023-05-08T16:55:55.084Z,11.43
2023-05-08T16:58:42.037Z,11.42
2023-05-08T17:01:29.061Z,11.39
2023-05-08T17:04:09.179Z,11.29
2023-05-08T17:06:56.018Z,11.29
2023-05-08T17:09:36.155Z,11.23
2023-05-08T17:12:23.021Z,11.20
2023-05-08T17:15:10.037Z,11.15
2023-05-08T17:17:50.710Z,11.08
2023-05-08T17:20:37.056Z,11.12
2023-05-08T17:23:17.902Z,11.13
2023-05-08T17:26:14.024Z,11.10
2023-05-08T17:29:00.989Z,11.09
2023-05-08T17:31:41.190Z,11.05
2023-05-08T17:34:29.013Z,11.05
2023-05-08T17:37:16.014Z,11.02
2023-05-08T17:40:09.999Z,10.94
2023-05-08T17:42:57.064Z,10.90
2023-05-08T17:45:37.236Z,10.90
2023-05-08T17:48:24.032Z,10.89
2023-05-08T17:51:04.161Z,10.79
2023-05-08T17:53:50.939Z,10.77
2023-05-08T17:56:31.889Z,10.80
2023-05-08T17:59:18.953Z,10.76
2023-05-08T18:01:59.175Z,10.72
2023-05-08T18:04:46.010Z,10.70
2023-05-08T18:07:33.021Z,10.68
2023-05-08T18:10:20.092Z,10.64
2023-05-08T18:13:00.018Z,10.62
2023-05-08T18:15:41.276Z,10.56
2023-05-08T18:18:27.949Z,10.55
2023-05-08T18:21:08.786Z,10.53
2023-05-08T18:23:55.925Z,10.54
2023-05-08T18:26:36.340Z,10.46
2023-05-08T18:29:22.940Z,10.44
2023-05-08T18:32:11.361Z,10.47
2023-05-08T18:34:50.918Z,10.43
2023-05-08T18:37:37.929Z,10.37
2023-05-08T18:40:25.195Z,10.42
2023-05-08T18:43:05.391Z,10.39
2023-05-08T18:45:52.892Z,10.42
2023-05-08T18:48:39.990Z,10.34
2023-05-08T18:51:19.929Z,10.26
2023-05-08T18:54:06.885Z,10.25
2023-05-08T18:56:46.986Z,10.21
2023-05-08T18:59:33.868Z,10.21
2023-05-08T19:02:20.916Z,10.18
2023-05-08T19:05:01.306Z,10.23
2023-05-08T19:07:47.854Z,10.21
2023-05-08T19:10:28.358Z,10.19
2023-05-08T19:13:14.954Z,10.21
2023-05-08T19:15:55.363Z,10.25
2023-05-08T19:18:42.873Z,10.33
2023-05-08T19:21:23.340Z,10.33
2023-05-08T19:24:09.809Z,10.29
2023-05-08T19:26:56.922Z,10.22
2023-05-08T19:42:00.169Z,9.64
2023-05-08T19:44:47.114Z,9.77
2023-05-08T19:47:27.270Z,9.86
2023-05-08T19:50:15.329Z,9.92
2023-05-08T19:53:02.075Z,9.92
2023-05-08T19:55:49.502Z,10.00
2023-05-08T19:58:29.075Z,10.03
2023-05-08T20:01:16.293Z,10.07
2023-05-08T20:03:58.984Z,9.99
2023-05-08T20:06:47.199Z,9.90
2023-05-08T20:09:27.121Z,9.91
2023-05-08T20:12:07.583Z,9.85
2023-05-08T20:14:54.058Z,9.79
2023-05-08T20:17:34.513Z,9.77
2023-05-08T20:20:15.115Z,9.74
2023-05-08T20:22:55.260Z,9.74
2023-05-08T20:25:42.166Z,9.72
2023-05-08T20:28:25.213Z,9.71
2023-05-08T20:31:12.008Z,9.64
2023-05-08T20:33:52.124Z,9.63
2023-05-08T20:36:39.038Z,9.69
2023-05-08T20:39:19.074Z,9.60
2023-05-08T20:42:06.020Z,9.66
2023-05-08T20:44:53.049Z,9.68
2023-05-08T20:47:40.036Z,9.69
2023-05-08T20:50:27.034Z,9.70
2023-05-08T20:53:07.402Z,9.72
2023-05-08T20:55:53.998Z,9.74
2023-05-08T20:58:41.018Z,9.79
2023-05-08T21:01:21.348Z,9.83
2023-05-08T21:04:08.087Z,9.80
2023-05-08T21:06:48.955Z,9.79
2023-05-08T21:09:36.998Z,9.79
2023-05-08T21:12:23.943Z,9.79
2023-05-08T21:15:05.628Z,9.79
2023-05-08T21:17:51.990Z,9.83
2023-05-08T21:20:33.903Z,9.81
2023-05-08T21:23:20.968Z,9.76
2023-05-08T21:26:01.304Z,9.80
2023-05-08T21:28:47.999Z,9.78
2023-05-08T21:31:28.998Z,9.79
2023-05-08T21:34:17.006Z,9.81
2023-05-08T21:36:57.498Z,9.82
2023-05-08T21:39:43.983Z,9.87
2023-05-08T21:42:24.302Z,9.91
2023-05-08T21:45:12.127Z,9.93
2023-05-08T21:47:59.008Z,10.00
2023-05-08T21:50:39.050Z,10.00
2023-05-08T21:53:25.916Z,10.01
2023-05-08T21:56:06.015Z,10.04
2023-05-08T21:58:52.959Z,10.02
2023-05-08T22:01:33.504Z,10.08
2023-05-08T22:04:19.939Z,10.12
2023-05-08T22:07:00.025Z,10.15
2023-05-08T22:09:46.911Z,10.13
2023-05-08T22:12:33.857Z,10.06
2023-05-08T22:15:29.914Z,10.09
2023-05-08T22:18:11.004Z,10.07
2023-05-08T22:20:57.935Z,10.08
2023-05-08T22:23:40.024Z,10.07
2023-05-08T22:26:27.888Z,10.11
2023-05-08T22:29:14.873Z,10.17
2023-05-08T22:31:55.835Z,10.23
2023-05-08T22:34:42.915Z,10.25
2023-05-08T22:37:23.273Z,10.24
2023-05-08T22:40:09.907Z,10.33
2023-05-08T22:42:57.905Z,10.35
2023-05-08T22:45:38.985Z,10.40
2023-05-08T22:48:25.931Z,10.45
2023-05-08T22:51:05.935Z,10.49
2023-05-08T22:53:53.855Z,10.49
2023-05-08T22:56:40.920Z,10.42
2023-05-08T22:59:21.171Z,10.47
2023-05-08T23:02:07.833Z,10.47
2023-05-08T23:04:54.919Z,10.39
2023-05-08T23:07:36.087Z,10.44
2023-05-08T23:10:22.876Z,10.44
2023-05-08T23:13:03.072Z,10.47
2023-05-08T23:15:49.804Z,10.54
2023-05-08T23:18:29.892Z,10.54
2023-05-08T23:21:16.824Z,10.54
2023-05-08T23:24:03.988Z,10.54
2023-05-08T23:26:50.794Z,10.46
2023-05-08T23:29:30.925Z,10.49
2023-05-08T23:32:17.867Z,10.56
2023-05-08T23:34:57.921Z,10.48
2023-05-08T23:37:44.829Z,10.45
2023-05-08T23:40:24.961Z,10.43
2023-05-08T23:43:12.799Z,10.45
2023-05-08T23:45:52.893Z,10.39
2023-05-08T23:48:39.749Z,10.44
2023-05-08T23:51:19.910Z,10.47
2023-05-08T23:54:06.757Z,10.40
2023-05-08T23:56:46.866Z,10.41
2023-05-08T23:59:33.746Z,10.48
